createdAt,value
2022-08-17T00:01:04.973Z,26.42
2022-08-17T00:06:14.071Z,26.38
2022-08-17T00:11:18.220Z,26.38
2022-08-17T00:16:23.047Z,26.35
2022-08-17T00:22:31.360Z,26.38
2022-08-17T00:27:10.818Z,26.30
2022-08-17T00:33:13.838Z,26.32
2022-08-17T00:37:37.880Z,26.30
2022-08-17T00:42:40.908Z,26.22
2022-08-17T00:47:43.923Z,26.23
2022-08-17T00:52:56.756Z,26.29
2022-08-17T00:58:01.258Z,26.24
2022-08-17T01:03:06.933Z,26.21
2022-08-17T01:08:12.947Z,26.12
2022-08-17T01:13:15.878Z,26.08
2022-08-17T01:18:18.708Z,26.07
2022-08-17T01:23:24.489Z,26.13
2022-08-17T01:28:52.601Z,25.97
2022-08-17T01:33:51.773Z,25.91
2022-08-17T01:38:55.977Z,25.89
2022-08-17T01:44:01.580Z,25.93
2022-08-17T01:49:07.051Z,25.98
2022-08-17T01:54:12.622Z,25.91
2022-08-17T01:59:16.096Z,25.86
2022-08-17T02:04:19.122Z,25.86
2022-08-17T02:09:25.666Z,25.89
2022-08-17T02:14:28.981Z,25.86
2022-08-17T02:19:32.268Z,25.80
2022-08-17T02:25:00.187Z,25.71
2022-08-17T02:30:00.358Z,25.89
2022-08-17T02:35:03.420Z,25.75
2022-08-17T02:40:09.142Z,25.76
2022-08-17T02:45:13.497Z,25.67
2022-08-17T02:50:17.262Z,25.69
2022-08-17T02:55:23.737Z,25.67
2022-08-17T03:00:29.192Z,25.69
2022-08-17T03:05:33.265Z,25.68
2022-08-17T03:10:37.496Z,25.67
2022-08-17T03:15:43.891Z,25.65
2022-08-17T03:20:47.191Z,25.69
2022-08-17T03:25:53.437Z,25.66
2022-08-17T03:30:56.647Z,25.65
2022-08-17T03:35:59.605Z,25.55
2022-08-17T03:41:03.913Z,25.55
2022-08-17T03:46:27.940Z,25.30
2022-08-17T03:51:49.770Z,25.06
2022-08-17T03:56:58.728Z,24.44
2022-08-17T04:02:03.735Z,24.19
2022-08-17T04:07:06.987Z,23.92
2022-08-17T04:12:11.216Z,23.87
2022-08-17T04:17:15.015Z,23.74
2022-08-17T04:22:30.291Z,23.41
2022-08-17T04:27:35.855Z,23.24
2022-08-17T04:33:04.552Z,23.25
2022-08-17T04:38:10.820Z,23.21
2022-08-17T04:43:16.394Z,23.15
2022-08-17T04:48:21.728Z,22.97
2022-08-17T04:53:24.642Z,22.89
2022-08-17T04:58:29.311Z,23.03
2022-08-17T05:03:32.169Z,22.98
2022-08-17T05:08:34.873Z,23.03
2022-08-17T05:13:39.004Z,23.21
2022-08-17T05:18:41.762Z,23.16
2022-08-17T05:23:44.465Z,22.84
2022-08-17T05:28:53.406Z,22.74
2022-08-17T05:33:56.964Z,22.72
2022-08-17T05:39:00.116Z,22.70
2022-08-17T05:44:05.238Z,22.84
2022-08-17T05:49:08.906Z,22.70
2022-08-17T05:54:21.530Z,22.72
2022-08-17T05:59:30.840Z,22.90
2022-08-17T06:04:38.290Z,22.73
2022-08-17T06:09:42.916Z,22.63
2022-08-17T06:14:56.069Z,22.64
2022-08-17T06:20:00.628Z,22.75
2022-08-17T06:25:09.996Z,23.13
2022-08-17T06:30:16.074Z,23.45
2022-08-17T06:35:20.583Z,23.50
2022-08-17T06:40:46.399Z,23.55
2022-08-17T06:45:54.209Z,23.63
2022-08-17T06:51:00.228Z,23.84
2022-08-17T06:56:05.439Z,24.10
2022-08-17T07:01:11.847Z,24.30
2022-08-17T07:06:17.105Z,24.44
2022-08-17T07:11:24.423Z,24.54
2022-08-17T07:16:38.878Z,24.64
2022-08-17T07:21:45.989Z,24.72
2022-08-17T07:26:49.650Z,24.78
2022-08-17T07:31:55.996Z,24.85
2022-08-17T07:37:03.396Z,24.92
2022-08-17T07:42:06.398Z,24.97
2022-08-17T07:47:28.051Z,25.02
2022-08-17T07:52:50.439Z,25.07
2022-08-17T07:57:56.019Z,25.12
2022-08-17T08:03:07.199Z,25.17
2022-08-17T08:08:28.171Z,25.23
2022-08-17T08:13:32.178Z,25.25
2022-08-17T08:18:54.719Z,25.30
2022-08-17T08:24:02.184Z,25.32
2022-08-17T08:29:09.327Z,25.38
2022-08-17T08:35:01.067Z,25.40
2022-08-17T08:39:45.212Z,25.44
2022-08-17T08:44:59.796Z,25.47
2022-08-17T08:50:37.395Z,25.48
2022-08-17T08:55:48.591Z,25.53
2022-08-17T09:00:53.324Z,25.53
2022-08-17T09:06:32.018Z,25.57
2022-08-17T09:12:01.857Z,25.60
2022-08-17T09:17:08.441Z,25.63
2022-08-17T09:22:25.585Z,25.67
2022-08-17T09:27:29.859Z,25.68
2022-08-17T09:32:35.218Z,25.73
2022-08-17T09:37:44.294Z,25.74
2022-08-17T09:42:48.868Z,25.77
2022-08-17T09:47:54.474Z,25.79
2022-08-17T09:52:59.887Z,25.81
2022-08-17T09:58:05.907Z,25.81
2022-08-17T10:03:25.063Z,25.86
2022-08-17T10:08:36.058Z,25.88
2022-08-17T10:13:52.756Z,25.89
2022-08-17T10:19:04.464Z,25.93
2022-08-17T10:24:28.520Z,25.96
2022-08-17T10:29:46.252Z,26.00
2022-08-17T10:35:02.069Z,26.03
2022-08-17T10:40:32.608Z,26.06
2022-08-17T10:45:37.859Z,26.07
2022-08-17T10:50:47.477Z,26.12
2022-08-17T10:56:17.412Z,26.15
2022-08-17T11:01:20.534Z,26.14
2022-08-17T11:06:26.439Z,26.18
2022-08-17T11:11:47.293Z,26.22
2022-08-17T11:16:58.327Z,26.23
2022-08-17T11:22:08.068Z,26.26
2022-08-17T11:27:24.134Z,26.33
2022-08-17T11:32:34.324Z,26.38
2022-08-17T11:37:47.367Z,26.44
2022-08-17T11:43:00.930Z,26.50
2022-08-17T11:48:28.706Z,26.58
2022-08-17T11:54:31.748Z,26.62
2022-08-17T11:59:59.030Z,26.65
2022-08-17T12:05:26.088Z,26.70
2022-08-17T12:10:31.873Z,26.70
2022-08-17T12:15:38.932Z,26.67
2022-08-17T12:20:43.708Z,26.57
2022-08-17T12:25:49.255Z,26.47
2022-08-17T12:30:53.536Z,26.47
2022-08-17T12:35:59.475Z,26.48
2022-08-17T12:41:24.339Z,26.50
2022-08-17T12:46:28.739Z,26.52
2022-08-17T12:51:31.723Z,26.49
2022-08-17T12:56:35.048Z,26.53
2022-08-17T13:01:41.631Z,26.56
2022-08-17T13:06:48.530Z,26.56
2022-08-17T13:11:52.200Z,26.56
2022-08-17T13:16:58.151Z,26.57
2022-08-17T13:22:01.793Z,26.58
2022-08-17T13:27:08.737Z,26.61
2022-08-17T13:32:19.759Z,26.67
2022-08-17T13:37:30.126Z,26.69
2022-08-17T13:42:51.510Z,26.70
2022-08-17T13:48:14.121Z,26.76
2022-08-17T13:53:21.317Z,26.75
2022-08-17T13:58:25.395Z,26.75
2022-08-17T14:03:29.513Z,26.79
2022-08-17T14:08:33.227Z,26.80
2022-08-17T14:13:36.496Z,26.81
2022-08-17T14:18:57.058Z,26.83
2022-08-17T14:24:00.323Z,26.86
2022-08-17T14:29:03.138Z,26.87
2022-08-17T14:34:10.573Z,26.90
2022-08-17T14:39:16.151Z,26.91
2022-08-17T14:44:18.980Z,26.94
2022-08-17T14:49:23.878Z,26.98
2022-08-17T14:54:33.910Z,27.02
2022-08-17T14:59:37.562Z,27.07
2022-08-17T15:04:45.578Z,27.12
2022-08-17T15:09:48.625Z,27.15
2022-08-17T15:14:51.607Z,27.18
2022-08-17T15:19:55.951Z,27.24
2022-08-17T15:24:58.686Z,27.27
2022-08-17T15:30:01.731Z,27.27
2022-08-17T15:35:06.977Z,27.35
2022-08-17T15:40:11.119Z,27.29
2022-08-17T15:45:14.563Z,27.28
2022-08-17T15:50:18.806Z,27.35
2022-08-17T15:55:24.163Z,27.38
2022-08-17T16:00:28.485Z,27.38
2022-08-17T16:05:32.760Z,27.43
2022-08-17T16:10:36.059Z,27.50
2022-08-17T16:15:39.151Z,27.51
2022-08-17T16:20:43.587Z,27.53
2022-08-17T16:25:53.451Z,27.57
2022-08-17T16:30:56.860Z,27.56
2022-08-17T16:36:01.015Z,27.57
2022-08-17T16:41:04.025Z,27.55
2022-08-17T16:46:06.747Z,27.64
2022-08-17T16:51:10.984Z,27.56
2022-08-17T16:56:13.851Z,27.56
2022-08-17T17:01:20.645Z,27.59
2022-08-17T17:06:30.835Z,27.65
2022-08-17T17:11:36.368Z,27.68
2022-08-17T17:16:45.629Z,27.71
2022-08-17T17:21:51.827Z,27.66
2022-08-17T17:27:07.237Z,27.69
2022-08-17T17:32:14.950Z,27.64
2022-08-17T17:37:25.637Z,27.65
2022-08-17T17:42:31.326Z,27.69
2022-08-17T17:47:34.807Z,27.69
2022-08-17T17:52:47.603Z,27.66
2022-08-17T17:57:57.114Z,27.67
2022-08-17T18:03:07.220Z,27.66
2022-08-17T18:08:18.884Z,27.66
2022-08-17T18:13:26.597Z,27.66
2022-08-17T18:18:40.338Z,27.61
2022-08-17T18:23:56.223Z,27.64
2022-08-17T18:28:58.941Z,27.63
2022-08-17T18:34:43.692Z,27.70
2022-08-17T18:39:44.930Z,27.65
2022-08-17T18:44:51.680Z,27.67
2022-08-17T18:49:58.552Z,27.71
2022-08-17T18:55:08.496Z,27.71
2022-08-17T19:00:12.851Z,27.70
2022-08-17T19:05:28.242Z,27.73
2022-08-17T19:10:46.661Z,27.77
2022-08-17T19:16:11.666Z,27.72
2022-08-17T19:21:16.396Z,27.71
2022-08-17T19:26:55.209Z,27.75
2022-08-17T19:31:45.624Z,27.65
2022-08-17T19:36:51.603Z,27.79
2022-08-17T19:42:00.723Z,27.78
2022-08-17T19:47:10.414Z,27.84
2022-08-17T19:52:22.551Z,27.80
2022-08-17T19:57:33.671Z,27.86
2022-08-17T20:02:38.774Z,27.86
2022-08-17T20:07:44.622Z,27.86
2022-08-17T20:12:48.775Z,27.85
2022-08-17T20:17:51.794Z,27.86
2022-08-17T20:22:56.198Z,27.87
2022-08-17T20:28:06.198Z,27.93
2022-08-17T20:33:19.413Z,27.81
2022-08-17T20:38:42.122Z,27.77
2022-08-17T20:44:05.099Z,27.67
2022-08-17T20:49:16.409Z,27.50
2022-08-17T20:54:50.600Z,27.63
2022-08-17T21:00:15.000Z,27.79
2022-08-17T21:05:40.431Z,27.75
2022-08-17T21:10:47.145Z,27.66
2022-08-17T21:15:54.719Z,27.58
2022-08-17T21:21:05.338Z,27.70
2022-08-17T21:26:17.440Z,27.22
2022-08-17T21:31:34.422Z,27.48
2022-08-17T21:36:37.351Z,27.63
2022-08-17T21:41:46.428Z,27.73
2022-08-17T21:46:52.294Z,27.76
2022-08-17T21:51:55.989Z,27.71
2022-08-17T21:56:59.011Z,27.74
2022-08-17T22:02:03.897Z,27.80
2022-08-17T22:07:07.717Z,27.77
2022-08-17T22:12:11.891Z,27.79
2022-08-17T22:17:18.067Z,27.80
2022-08-17T22:22:26.250Z,27.83
2022-08-17T22:27:51.192Z,27.73
2022-08-17T22:32:55.456Z,27.76
2022-08-17T22:37:58.898Z,27.74
2022-08-17T22:43:03.425Z,27.67
2022-08-17T22:48:07.662Z,27.64
2022-08-17T22:53:32.999Z,27.67
2022-08-17T22:58:59.208Z,27.60
2022-08-17T23:04:05.733Z,27.63
2022-08-17T23:09:09.120Z,27.61
2022-08-17T23:14:12.395Z,27.61
2022-08-17T23:19:18.065Z,27.59
2022-08-17T23:24:22.338Z,27.53
2022-08-17T23:29:25.170Z,27.55
2022-08-17T23:34:29.289Z,27.49
2022-08-17T23:39:32.120Z,27.43
2022-08-17T23:44:35.046Z,27.42
2022-08-17T23:49:40.317Z,27.37
2022-08-17T23:54:44.583Z,27.40
2022-08-17T23:59:47.323Z,27.35
